sensor_id;sensor_type;location;lat;lon;timestamp;P1;durP1;ratioP1;P2;durP2;ratioP2
43801;SDS011;29429;51.074;13.764;2022-09-21T00:01:21;10.63;;;7.40;;
43801;SDS011;29429;51.074;13.764;2022-09-21T00:03:52;8.57;;;6.72;;
43801;SDS011;29429;51.074;13.764;2022-09-21T00:06:23;12.20;;;7.32;;
43801;SDS011;29429;51.074;13.764;2022-09-21T00:08:52;10.27;;;6.18;;
43801;SDS011;29429;51.074;13.764;2022-09-21T00:11:21;10.05;;;6.82;;
43801;SDS011;29429;51.074;13.764;2022-09-21T00:13:52;10.32;;;6.53;;
43801;SDS011;29429;51.074;13.764;2022-09-21T00:16:29;10.25;;;6.18;;
43801;SDS011;29429;51.074;13.764;2022-09-21T00:18:57;11.13;;;6.15;;
43801;SDS011;29429;51.074;13.764;2022-09-21T00:21:25;11.13;;;6.03;;
43801;SDS011;29429;51.074;13.764;2022-09-21T00:23:53;12.07;;;6.63;;
43801;SDS011;29429;51.074;13.764;2022-09-21T00:26:21;10.65;;;6.40;;
43801;SDS011;29429;51.074;13.764;2022-09-21T00:28:54;8.98;;;6.25;;
43801;SDS011;29429;51.074;13.764;2022-09-21T00:31:24;7.75;;;4.78;;
43801;SDS011;29429;51.074;13.764;2022-09-21T00:33:53;7.82;;;4.97;;
43801;SDS011;29429;51.074;13.764;2022-09-21T00:36:21;8.07;;;5.65;;
43801;SDS011;29429;51.074;13.764;2022-09-21T00:38:51;6.82;;;4.95;;
43801;SDS011;29429;51.074;13.764;2022-09-21T00:41:21;11.18;;;6.45;;
43801;SDS011;29429;51.074;13.764;2022-09-21T00:46:45;10.27;;;6.18;;
43801;SDS011;29429;51.074;13.764;2022-09-21T00:49:15;10.05;;;6.70;;
43801;SDS011;29429;51.074;13.764;2022-09-21T00:51:43;9.07;;;6.40;;
43801;SDS011;29429;51.074;13.764;2022-09-21T00:54:13;10.30;;;6.97;;
43801;SDS011;29429;51.074;13.764;2022-09-21T00:56:55;10.40;;;6.65;;
43801;SDS011;29429;51.074;13.764;2022-09-21T00:59:29;10.85;;;6.93;;
43801;SDS011;29429;51.074;13.764;2022-09-21T01:01:59;11.43;;;7.25;;
43801;SDS011;29429;51.074;13.764;2022-09-21T01:04:26;9.50;;;6.93;;
43801;SDS011;29429;51.074;13.764;2022-09-21T01:06:54;10.68;;;7.00;;
43801;SDS011;29429;51.074;13.764;2022-09-21T01:09:25;10.43;;;7.05;;
43801;SDS011;29429;51.074;13.764;2022-09-21T01:18:37;7.80;;;5.90;;
43801;SDS011;29429;51.074;13.764;2022-09-21T01:26:59;8.90;;;5.68;;
43801;SDS011;29429;51.074;13.764;2022-09-21T01:29:58;9.73;;;5.65;;
43801;SDS011;29429;51.074;13.764;2022-09-21T01:32:41;9.27;;;6.03;;
43801;SDS011;29429;51.074;13.764;2022-09-21T01:35:25;7.90;;;5.50;;
43801;SDS011;29429;51.074;13.764;2022-09-21T01:38:04;8.98;;;5.70;;
43801;SDS011;29429;51.074;13.764;2022-09-21T01:40:39;11.70;;;5.95;;
43801;SDS011;29429;51.074;13.764;2022-09-21T01:43:23;8.77;;;5.30;;
43801;SDS011;29429;51.074;13.764;2022-09-21T01:45:58;7.95;;;4.90;;
43801;SDS011;29429;51.074;13.764;2022-09-21T01:48:31;11.10;;;6.72;;
43801;SDS011;29429;51.074;13.764;2022-09-21T01:51:05;9.25;;;5.95;;
43801;SDS011;29429;51.074;13.764;2022-09-21T01:53:38;11.05;;;6.13;;
43801;SDS011;29429;51.074;13.764;2022-09-21T01:56:20;8.20;;;4.63;;
43801;SDS011;29429;51.074;13.764;2022-09-21T01:59:15;10.25;;;6.00;;
43801;SDS011;29429;51.074;13.764;2022-09-21T02:01:54;7.38;;;5.10;;
43801;SDS011;29429;51.074;13.764;2022-09-21T02:04:25;8.60;;;5.40;;
43801;SDS011;29429;51.074;13.764;2022-09-21T02:06:53;7.53;;;5.32;;
43801;SDS011;29429;51.074;13.764;2022-09-21T02:09:20;8.88;;;6.25;;
43801;SDS011;29429;51.074;13.764;2022-09-21T02:11:50;10.55;;;6.35;;
43801;SDS011;29429;51.074;13.764;2022-09-21T02:14:19;9.35;;;6.30;;
43801;SDS011;29429;51.074;13.764;2022-09-21T02:17:03;7.55;;;4.72;;
43801;SDS011;29429;51.074;13.764;2022-09-21T02:25:56;10.55;;;6.18;;
43801;SDS011;29429;51.074;13.764;2022-09-21T02:31:25;9.25;;;6.05;;
43801;SDS011;29429;51.074;13.764;2022-09-21T02:34:15;10.20;;;5.95;;
43801;SDS011;29429;51.074;13.764;2022-09-21T02:37:06;10.27;;;5.47;;
43801;SDS011;29429;51.074;13.764;2022-09-21T02:42:29;12.65;;;5.43;;
43801;SDS011;29429;51.074;13.764;2022-09-21T02:45:04;8.23;;;5.50;;
43801;SDS011;29429;51.074;13.764;2022-09-21T02:47:49;9.63;;;6.65;;
43801;SDS011;29429;51.074;13.764;2022-09-21T02:50:38;9.48;;;6.32;;
43801;SDS011;29429;51.074;13.764;2022-09-21T02:53:17;9.68;;;5.50;;
43801;SDS011;29429;51.074;13.764;2022-09-21T02:55:53;7.57;;;5.30;;
43801;SDS011;29429;51.074;13.764;2022-09-21T02:58:25;9.43;;;5.20;;
43801;SDS011;29429;51.074;13.764;2022-09-21T03:00:54;9.70;;;5.68;;
43801;SDS011;29429;51.074;13.764;2022-09-21T03:03:24;8.32;;;5.50;;
43801;SDS011;29429;51.074;13.764;2022-09-21T03:05:52;9.30;;;5.53;;
43801;SDS011;29429;51.074;13.764;2022-09-21T03:08:20;7.28;;;5.00;;
43801;SDS011;29429;51.074;13.764;2022-09-21T03:10:47;7.20;;;5.07;;
43801;SDS011;29429;51.074;13.764;2022-09-21T03:13:15;7.97;;;5.07;;
43801;SDS011;29429;51.074;13.764;2022-09-21T03:15:44;9.73;;;4.97;;
43801;SDS011;29429;51.074;13.764;2022-09-21T03:18:11;9.02;;;5.45;;
43801;SDS011;29429;51.074;13.764;2022-09-21T03:20:40;9.45;;;5.75;;
43801;SDS011;29429;51.074;13.764;2022-09-21T03:23:11;9.40;;;5.55;;
43801;SDS011;29429;51.074;13.764;2022-09-21T03:25:39;9.15;;;5.20;;
43801;SDS011;29429;51.074;13.764;2022-09-21T03:28:11;12.50;;;6.35;;
43801;SDS011;29429;51.074;13.764;2022-09-21T03:30:39;7.53;;;5.30;;
43801;SDS011;29429;51.074;13.764;2022-09-21T03:33:07;10.35;;;6.50;;
43801;SDS011;29429;51.074;13.764;2022-09-21T03:35:35;8.05;;;5.93;;
43801;SDS011;29429;51.074;13.764;2022-09-21T03:38:02;9.40;;;5.90;;
43801;SDS011;29429;51.074;13.764;2022-09-21T03:40:29;10.52;;;5.80;;
43801;SDS011;29429;51.074;13.764;2022-09-21T03:42:57;8.80;;;5.70;;
43801;SDS011;29429;51.074;13.764;2022-09-21T03:45:24;10.95;;;5.22;;
43801;SDS011;29429;51.074;13.764;2022-09-21T03:47:56;10.13;;;5.47;;
43801;SDS011;29429;51.074;13.764;2022-09-21T03:50:25;8.20;;;5.32;;
43801;SDS011;29429;51.074;13.764;2022-09-21T03:52:54;7.57;;;5.43;;
43801;SDS011;29429;51.074;13.764;2022-09-21T03:55:22;8.48;;;5.43;;
43801;SDS011;29429;51.074;13.764;2022-09-21T03:57:49;9.90;;;5.55;;
43801;SDS011;29429;51.074;13.764;2022-09-21T04:00:16;10.70;;;5.50;;
43801;SDS011;29429;51.074;13.764;2022-09-21T04:02:44;7.90;;;5.55;;
43801;SDS011;29429;51.074;13.764;2022-09-21T04:05:11;8.40;;;5.78;;
43801;SDS011;29429;51.074;13.764;2022-09-21T04:07:41;8.65;;;5.40;;
43801;SDS011;29429;51.074;13.764;2022-09-21T04:10:11;9.00;;;5.78;;
43801;SDS011;29429;51.074;13.764;2022-09-21T04:12:55;8.90;;;5.93;;
43801;SDS011;29429;51.074;13.764;2022-09-21T04:15:23;9.57;;;5.95;;
43801;SDS011;29429;51.074;13.764;2022-09-21T04:17:50;10.82;;;5.78;;
43801;SDS011;29429;51.074;13.764;2022-09-21T04:20:19;9.10;;;5.22;;
43801;SDS011;29429;51.074;13.764;2022-09-21T04:22:47;9.40;;;6.13;;
43801;SDS011;29429;51.074;13.764;2022-09-21T04:25:14;10.65;;;5.63;;
43801;SDS011;29429;51.074;13.764;2022-09-21T04:27:41;8.63;;;5.82;;
43801;SDS011;29429;51.074;13.764;2022-09-21T04:30:09;11.13;;;5.78;;
43801;SDS011;29429;51.074;13.764;2022-09-21T04:32:38;12.18;;;6.72;;
43801;SDS011;29429;51.074;13.764;2022-09-21T04:35:06;11.50;;;6.85;;
43801;SDS011;29429;51.074;13.764;2022-09-21T04:37:33;11.38;;;6.90;;
43801;SDS011;29429;51.074;13.764;2022-09-21T04:40:00;13.63;;;6.88;;
43801;SDS011;29429;51.074;13.764;2022-09-21T04:42:29;13.20;;;7.30;;
43801;SDS011;29429;51.074;13.764;2022-09-21T04:44:56;19.05;;;8.40;;
43801;SDS011;29429;51.074;13.764;2022-09-21T04:47:23;19.83;;;8.98;;
43801;SDS011;29429;51.074;13.764;2022-09-21T04:49:50;14.57;;;8.60;;
43801;SDS011;29429;51.074;13.764;2022-09-21T04:52:20;17.85;;;9.00;;
43801;SDS011;29429;51.074;13.764;2022-09-21T04:54:47;17.05;;;9.23;;
43801;SDS011;29429;51.074;13.764;2022-09-21T04:57:14;21.67;;;8.82;;
43801;SDS011;29429;51.074;13.764;2022-09-21T04:59:41;20.77;;;10.82;;
43801;SDS011;29429;51.074;13.764;2022-09-21T05:02:08;20.90;;;10.55;;
43801;SDS011;29429;51.074;13.764;2022-09-21T05:04:35;17.23;;;9.15;;
43801;SDS011;29429;51.074;13.764;2022-09-21T05:07:02;25.27;;;11.40;;
43801;SDS011;29429;51.074;13.764;2022-09-21T05:09:29;19.92;;;10.70;;
43801;SDS011;29429;51.074;13.764;2022-09-21T05:14:41;28.73;;;12.73;;
43801;SDS011;29429;51.074;13.764;2022-09-21T05:17:10;17.80;;;9.90;;
43801;SDS011;29429;51.074;13.764;2022-09-21T05:19:38;23.77;;;12.88;;
43801;SDS011;29429;51.074;13.764;2022-09-21T05:22:06;26.73;;;13.32;;
43801;SDS011;29429;51.074;13.764;2022-09-21T05:24:33;29.10;;;14.23;;
43801;SDS011;29429;51.074;13.764;2022-09-21T05:27:00;33.05;;;14.80;;
43801;SDS011;29429;51.074;13.764;2022-09-21T05:29:27;24.70;;;13.07;;
43801;SDS011;29429;51.074;13.764;2022-09-21T05:32:02;25.95;;;13.43;;
43801;SDS011;29429;51.074;13.764;2022-09-21T05:37:47;25.25;;;13.43;;
43801;SDS011;29429;51.074;13.764;2022-09-21T05:40:27;24.35;;;12.85;;
43801;SDS011;29429;51.074;13.764;2022-09-21T05:42:54;25.65;;;13.15;;
43801;SDS011;29429;51.074;13.764;2022-09-21T05:45:21;24.30;;;13.10;;
43801;SDS011;29429;51.074;13.764;2022-09-21T05:56:01;27.83;;;14.68;;
43801;SDS011;29429;51.074;13.764;2022-09-21T05:59:18;25.83;;;14.27;;
43801;SDS011;29429;51.074;13.764;2022-09-21T06:02:17;24.48;;;14.45;;
43801;SDS011;29429;51.074;13.764;2022-09-21T06:06:18;26.17;;;14.90;;
43801;SDS011;29429;51.074;13.764;2022-09-21T06:08:46;23.55;;;15.35;;
43801;SDS011;29429;51.074;13.764;2022-09-21T06:11:13;27.13;;;15.10;;
43801;SDS011;29429;51.074;13.764;2022-09-21T06:13:40;33.03;;;15.60;;
43801;SDS011;29429;51.074;13.764;2022-09-21T06:16:07;28.40;;;15.38;;
43801;SDS011;29429;51.074;13.764;2022-09-21T06:18:37;26.63;;;15.20;;
43801;SDS011;29429;51.074;13.764;2022-09-21T06:21:06;28.42;;;15.48;;
43801;SDS011;29429;51.074;13.764;2022-09-21T06:23:34;21.50;;;14.73;;
43801;SDS011;29429;51.074;13.764;2022-09-21T06:26:02;28.33;;;15.00;;
43801;SDS011;29429;51.074;13.764;2022-09-21T06:28:32;29.83;;;15.35;;
43801;SDS011;29429;51.074;13.764;2022-09-21T06:30:59;27.92;;;16.55;;
43801;SDS011;29429;51.074;13.764;2022-09-21T06:33:26;28.85;;;15.38;;
43801;SDS011;29429;51.074;13.764;2022-09-21T06:36:16;26.73;;;15.65;;
43801;SDS011;29429;51.074;13.764;2022-09-21T06:38:45;23.27;;;14.88;;
43801;SDS011;29429;51.074;13.764;2022-09-21T06:41:13;24.13;;;15.10;;
43801;SDS011;29429;51.074;13.764;2022-09-21T06:43:46;26.15;;;15.57;;
43801;SDS011;29429;51.074;13.764;2022-09-21T06:46:13;25.08;;;14.63;;
43801;SDS011;29429;51.074;13.764;2022-09-21T06:48:41;27.20;;;13.82;;
43801;SDS011;29429;51.074;13.764;2022-09-21T06:51:11;20.70;;;13.23;;
43801;SDS011;29429;51.074;13.764;2022-09-21T06:53:46;20.38;;;12.65;;
43801;SDS011;29429;51.074;13.764;2022-09-21T06:56:15;18.90;;;13.30;;
43801;SDS011;29429;51.074;13.764;2022-09-21T06:58:42;18.35;;;12.00;;
43801;SDS011;29429;51.074;13.764;2022-09-21T07:01:13;18.67;;;11.82;;
43801;SDS011;29429;51.074;13.764;2022-09-21T07:03:47;17.85;;;11.50;;
43801;SDS011;29429;51.074;13.764;2022-09-21T07:08:46;19.25;;;12.05;;
43801;SDS011;29429;51.074;13.764;2022-09-21T07:11:48;18.25;;;11.95;;
43801;SDS011;29429;51.074;13.764;2022-09-21T07:14:16;19.48;;;12.55;;
43801;SDS011;29429;51.074;13.764;2022-09-21T07:16:42;18.35;;;10.95;;
43801;SDS011;29429;51.074;13.764;2022-09-21T07:19:16;17.92;;;11.93;;
43801;SDS011;29429;51.074;13.764;2022-09-21T07:21:42;16.27;;;11.13;;
43801;SDS011;29429;51.074;13.764;2022-09-21T07:24:20;17.65;;;10.85;;
43801;SDS011;29429;51.074;13.764;2022-09-21T07:26:47;19.33;;;12.00;;
43801;SDS011;29429;51.074;13.764;2022-09-21T07:29:14;17.45;;;11.15;;
43801;SDS011;29429;51.074;13.764;2022-09-21T07:31:42;13.63;;;10.52;;
43801;SDS011;29429;51.074;13.764;2022-09-21T07:34:10;17.35;;;11.45;;
43801;SDS011;29429;51.074;13.764;2022-09-21T07:36:51;14.27;;;10.18;;
43801;SDS011;29429;51.074;13.764;2022-09-21T07:39:21;15.93;;;10.15;;
43801;SDS011;29429;51.074;13.764;2022-09-21T07:41:58;12.82;;;9.98;;
43801;SDS011;29429;51.074;13.764;2022-09-21T07:44:36;12.65;;;8.93;;
43801;SDS011;29429;51.074;13.764;2022-09-21T07:47:30;12.90;;;9.23;;
43801;SDS011;29429;51.074;13.764;2022-09-21T07:50:07;15.18;;;9.60;;
43801;SDS011;29429;51.074;13.764;2022-09-21T07:53:09;17.40;;;8.98;;
43801;SDS011;29429;51.074;13.764;2022-09-21T07:55:40;12.38;;;8.68;;
43801;SDS011;29429;51.074;13.764;2022-09-21T07:58:07;12.27;;;7.80;;
43801;SDS011;29429;51.074;13.764;2022-09-21T08:00:53;13.10;;;7.47;;
43801;SDS011;29429;51.074;13.764;2022-09-21T08:03:20;10.50;;;7.80;;
43801;SDS011;29429;51.074;13.764;2022-09-21T08:05:47;11.65;;;7.65;;
43801;SDS011;29429;51.074;13.764;2022-09-21T08:08:14;11.07;;;7.88;;
43801;SDS011;29429;51.074;13.764;2022-09-21T08:10:42;8.85;;;6.53;;
43801;SDS011;29429;51.074;13.764;2022-09-21T08:13:09;9.05;;;6.25;;
43801;SDS011;29429;51.074;13.764;2022-09-21T08:15:36;11.57;;;6.95;;
43801;SDS011;29429;51.074;13.764;2022-09-21T08:18:15;9.32;;;6.82;;
43801;SDS011;29429;51.074;13.764;2022-09-21T08:20:42;14.50;;;7.88;;
43801;SDS011;29429;51.074;13.764;2022-09-21T08:23:09;11.85;;;7.55;;
43801;SDS011;29429;51.074;13.764;2022-09-21T08:25:37;9.85;;;7.28;;
43801;SDS011;29429;51.074;13.764;2022-09-21T08:28:03;9.77;;;7.40;;
43801;SDS011;29429;51.074;13.764;2022-09-21T08:30:35;14.77;;;7.60;;
43801;SDS011;29429;51.074;13.764;2022-09-21T08:33:02;11.68;;;7.45;;
43801;SDS011;29429;51.074;13.764;2022-09-21T08:35:29;10.90;;;6.50;;
43801;SDS011;29429;51.074;13.764;2022-09-21T08:37:56;10.93;;;7.47;;
43801;SDS011;29429;51.074;13.764;2022-09-21T08:40:23;8.52;;;6.13;;
43801;SDS011;29429;51.074;13.764;2022-09-21T08:45:28;9.27;;;5.90;;
43801;SDS011;29429;51.074;13.764;2022-09-21T08:48:04;9.15;;;5.57;;
43801;SDS011;29429;51.074;13.764;2022-09-21T08:51:07;10.15;;;5.53;;
43801;SDS011;29429;51.074;13.764;2022-09-21T08:53:43;8.20;;;4.82;;
43801;SDS011;29429;51.074;13.764;2022-09-21T08:56:14;8.40;;;4.97;;
43801;SDS011;29429;51.074;13.764;2022-09-21T08:58:42;8.68;;;4.65;;
43801;SDS011;29429;51.074;13.764;2022-09-21T09:06:21;6.43;;;4.30;;
43801;SDS011;29429;51.074;13.764;2022-09-21T09:11:36;5.10;;;4.13;;
43801;SDS011;29429;51.074;13.764;2022-09-21T09:25:50;7.05;;;3.53;;
43801;SDS011;29429;51.074;13.764;2022-09-21T09:31:11;7.78;;;3.20;;
43801;SDS011;29429;51.074;13.764;2022-09-21T09:36:24;7.85;;;3.47;;
43801;SDS011;29429;51.074;13.764;2022-09-21T09:39:18;7.57;;;2.83;;
43801;SDS011;29429;51.074;13.764;2022-09-21T09:41:55;4.13;;;3.00;;
43801;SDS011;29429;51.074;13.764;2022-09-21T09:50:32;6.15;;;2.63;;
43801;SDS011;29429;51.074;13.764;2022-09-21T09:53:11;4.97;;;2.70;;
43801;SDS011;29429;51.074;13.764;2022-09-21T09:55:44;5.45;;;2.70;;
43801;SDS011;29429;51.074;13.764;2022-09-21T09:58:19;7.05;;;2.30;;
43801;SDS011;29429;51.074;13.764;2022-09-21T10:01:09;4.22;;;2.63;;
43801;SDS011;29429;51.074;13.764;2022-09-21T10:04:14;4.10;;;2.00;;
43801;SDS011;29429;51.074;13.764;2022-09-21T10:06:43;4.55;;;2.10;;
43801;SDS011;29429;51.074;13.764;2022-09-21T10:09:22;3.40;;;1.75;;
43801;SDS011;29429;51.074;13.764;2022-09-21T10:11:59;3.95;;;2.08;;
43801;SDS011;29429;51.074;13.764;2022-09-21T10:14:53;6.05;;;1.92;;
43801;SDS011;29429;51.074;13.764;2022-09-21T10:17:25;2.72;;;1.23;;
43801;SDS011;29429;51.074;13.764;2022-09-21T10:20:03;4.28;;;1.77;;
43801;SDS011;29429;51.074;13.764;2022-09-21T10:22:33;5.15;;;2.03;;
43801;SDS011;29429;51.074;13.764;2022-09-21T10:25:00;3.75;;;1.60;;
43801;SDS011;29429;51.074;13.764;2022-09-21T10:27:34;3.75;;;1.20;;
43801;SDS011;29429;51.074;13.764;2022-09-21T10:30:03;2.50;;;1.45;;
43801;SDS011;29429;51.074;13.764;2022-09-21T10:32:30;3.25;;;1.40;;
43801;SDS011;29429;51.074;13.764;2022-09-21T10:37:36;1.98;;;1.10;;
43801;SDS011;29429;51.074;13.764;2022-09-21T10:42:50;3.17;;;1.35;;
43801;SDS011;29429;51.074;13.764;2022-09-21T10:45:26;4.38;;;1.42;;
43801;SDS011;29429;51.074;13.764;2022-09-21T10:50:46;6.55;;;1.70;;
43801;SDS011;29429;51.074;13.764;2022-09-21T10:53:23;3.88;;;1.33;;
43801;SDS011;29429;51.074;13.764;2022-09-21T11:01:52;4.03;;;1.30;;
43801;SDS011;29429;51.074;13.764;2022-09-21T11:09:41;3.42;;;1.20;;
43801;SDS011;29429;51.074;13.764;2022-09-21T11:12:45;1.85;;;1.10;;
43801;SDS011;29429;51.074;13.764;2022-09-21T11:16:06;2.47;;;1.08;;
43801;SDS011;29429;51.074;13.764;2022-09-21T11:22:17;1.60;;;1.17;;
43801;SDS011;29429;51.074;13.764;2022-09-21T11:27:33;2.97;;;0.90;;
43801;SDS011;29429;51.074;13.764;2022-09-21T11:47:15;4.10;;;1.30;;
43801;SDS011;29429;51.074;13.764;2022-09-21T12:05:13;3.20;;;1.02;;
43801;SDS011;29429;51.074;13.764;2022-09-21T12:08:07;2.17;;;1.00;;
43801;SDS011;29429;51.074;13.764;2022-09-21T12:23:31;2.08;;;1.17;;
43801;SDS011;29429;51.074;13.764;2022-09-21T12:26:37;1.67;;;0.80;;
43801;SDS011;29429;51.074;13.764;2022-09-21T12:29:16;2.20;;;1.02;;
43801;SDS011;29429;51.074;13.764;2022-09-21T12:34:33;1.70;;;0.70;;
43801;SDS011;29429;51.074;13.764;2022-09-21T12:37:24;2.33;;;0.77;;
43801;SDS011;29429;51.074;13.764;2022-09-21T12:42:56;1.95;;;0.88;;
43801;SDS011;29429;51.074;13.764;2022-09-21T12:46:27;3.17;;;1.00;;
43801;SDS011;29429;51.074;13.764;2022-09-21T12:49:00;1.17;;;0.80;;
43801;SDS011;29429;51.074;13.764;2022-09-21T12:51:43;1.75;;;1.02;;
43801;SDS011;29429;51.074;13.764;2022-09-21T12:57:29;2.63;;;1.00;;
43801;SDS011;29429;51.074;13.764;2022-09-21T13:00:44;1.88;;;0.80;;
43801;SDS011;29429;51.074;13.764;2022-09-21T13:08:56;1.95;;;1.10;;
43801;SDS011;29429;51.074;13.764;2022-09-21T13:11:33;3.33;;;1.30;;
43801;SDS011;29429;51.074;13.764;2022-09-21T13:14:15;2.85;;;1.17;;
43801;SDS011;29429;51.074;13.764;2022-09-21T13:16:43;1.70;;;0.90;;
43801;SDS011;29429;51.074;13.764;2022-09-21T13:19:26;1.38;;;0.90;;
43801;SDS011;29429;51.074;13.764;2022-09-21T13:22:21;6.93;;;1.40;;
43801;SDS011;29429;51.074;13.764;2022-09-21T13:25:25;3.47;;;1.05;;
43801;SDS011;29429;51.074;13.764;2022-09-21T13:28:00;3.03;;;1.40;;
43801;SDS011;29429;51.074;13.764;2022-09-21T13:34:05;3.17;;;1.08;;
43801;SDS011;29429;51.074;13.764;2022-09-21T13:39:50;2.67;;;1.00;;
43801;SDS011;29429;51.074;13.764;2022-09-21T13:47:50;2.97;;;1.00;;
43801;SDS011;29429;51.074;13.764;2022-09-21T13:50:23;1.05;;;0.80;;
43801;SDS011;29429;51.074;13.764;2022-09-21T13:53:20;3.05;;;1.10;;
43801;SDS011;29429;51.074;13.764;2022-09-21T13:55:59;1.63;;;0.95;;
43801;SDS011;29429;51.074;13.764;2022-09-21T13:58:41;1.75;;;0.77;;
43801;SDS011;29429;51.074;13.764;2022-09-21T14:04:15;2.10;;;0.90;;
43801;SDS011;29429;51.074;13.764;2022-09-21T14:06:56;4.13;;;0.65;;
43801;SDS011;29429;51.074;13.764;2022-09-21T14:09:38;2.80;;;0.85;;
43801;SDS011;29429;51.074;13.764;2022-09-21T14:12:18;2.40;;;0.80;;
43801;SDS011;29429;51.074;13.764;2022-09-21T14:15:17;1.77;;;0.80;;
43801;SDS011;29429;51.074;13.764;2022-09-21T14:18:08;2.05;;;0.70;;
43801;SDS011;29429;51.074;13.764;2022-09-21T14:23:36;1.20;;;0.73;;
43801;SDS011;29429;51.074;13.764;2022-09-21T14:29:10;1.77;;;1.05;;
43801;SDS011;29429;51.074;13.764;2022-09-21T14:34:19;2.28;;;0.80;;
43801;SDS011;29429;51.074;13.764;2022-09-21T14:39:28;2.38;;;1.13;;
43801;SDS011;29429;51.074;13.764;2022-09-21T14:42:10;1.20;;;0.75;;
43801;SDS011;29429;51.074;13.764;2022-09-21T14:44:59;2.45;;;0.85;;
43801;SDS011;29429;51.074;13.764;2022-09-21T14:47:40;0.82;;;0.80;;
43801;SDS011;29429;51.074;13.764;2022-09-21T15:06:42;2.55;;;1.17;;
43801;SDS011;29429;51.074;13.764;2022-09-21T15:15:31;2.13;;;1.13;;
43801;SDS011;29429;51.074;13.764;2022-09-21T15:18:00;3.33;;;1.10;;
43801;SDS011;29429;51.074;13.764;2022-09-21T15:20:29;1.13;;;0.93;;
43801;SDS011;29429;51.074;13.764;2022-09-21T15:22:58;1.20;;;1.00;;
43801;SDS011;29429;51.074;13.764;2022-09-21T15:25:27;1.60;;;1.20;;
43801;SDS011;29429;51.074;13.764;2022-09-21T15:27:58;1.35;;;0.95;;
43801;SDS011;29429;51.074;13.764;2022-09-21T15:30:26;1.48;;;1.08;;
43801;SDS011;29429;51.074;13.764;2022-09-21T15:32:59;1.15;;;0.88;;
43801;SDS011;29429;51.074;13.764;2022-09-21T15:35:31;1.35;;;1.10;;
43801;SDS011;29429;51.074;13.764;2022-09-21T15:37:59;1.90;;;0.95;;
43801;SDS011;29429;51.074;13.764;2022-09-21T15:40:28;2.70;;;1.20;;
43801;SDS011;29429;51.074;13.764;2022-09-21T15:45:51;1.13;;;1.02;;
43801;SDS011;29429;51.074;13.764;2022-09-21T15:48:25;1.88;;;1.38;;
43801;SDS011;29429;51.074;13.764;2022-09-21T15:51:17;1.95;;;1.48;;
43801;SDS011;29429;51.074;13.764;2022-09-21T15:53:57;2.08;;;1.30;;
43801;SDS011;29429;51.074;13.764;2022-09-21T15:56:55;1.88;;;1.10;;
43801;SDS011;29429;51.074;13.764;2022-09-21T15:59:27;1.10;;;1.00;;
43801;SDS011;29429;51.074;13.764;2022-09-21T16:01:57;2.83;;;1.10;;
43801;SDS011;29429;51.074;13.764;2022-09-21T16:04:35;1.95;;;1.40;;
43801;SDS011;29429;51.074;13.764;2022-09-21T16:09:51;1.80;;;1.10;;
43801;SDS011;29429;51.074;13.764;2022-09-21T16:14:52;2.45;;;1.20;;
43801;SDS011;29429;51.074;13.764;2022-09-21T16:17:21;2.22;;;1.20;;
43801;SDS011;29429;51.074;13.764;2022-09-21T16:22:30;4.40;;;1.40;;
43801;SDS011;29429;51.074;13.764;2022-09-21T16:28:01;2.35;;;1.38;;
43801;SDS011;29429;51.074;13.764;2022-09-21T16:30:39;3.13;;;1.42;;
43801;SDS011;29429;51.074;13.764;2022-09-21T16:33:35;2.15;;;1.35;;
43801;SDS011;29429;51.074;13.764;2022-09-21T16:38:57;2.30;;;1.98;;
43801;SDS011;29429;51.074;13.764;2022-09-21T16:41:41;3.72;;;1.65;;
43801;SDS011;29429;51.074;13.764;2022-09-21T16:44:16;4.88;;;2.30;;
43801;SDS011;29429;51.074;13.764;2022-09-21T16:46:51;3.53;;;2.15;;
43801;SDS011;29429;51.074;13.764;2022-09-21T16:49:30;3.67;;;2.53;;
43801;SDS011;29429;51.074;13.764;2022-09-21T16:52:00;3.30;;;2.30;;
43801;SDS011;29429;51.074;13.764;2022-09-21T16:54:35;2.53;;;2.10;;
43801;SDS011;29429;51.074;13.764;2022-09-21T16:57:04;4.90;;;2.40;;
43801;SDS011;29429;51.074;13.764;2022-09-21T16:59:31;3.72;;;2.20;;
43801;SDS011;29429;51.074;13.764;2022-09-21T17:01:59;2.78;;;2.08;;
43801;SDS011;29429;51.074;13.764;2022-09-21T17:04:30;4.00;;;2.40;;
43801;SDS011;29429;51.074;13.764;2022-09-21T17:07:00;6.57;;;2.70;;
43801;SDS011;29429;51.074;13.764;2022-09-21T17:12:01;5.93;;;2.40;;
43801;SDS011;29429;51.074;13.764;2022-09-21T17:14:32;4.05;;;2.50;;
43801;SDS011;29429;51.074;13.764;2022-09-21T17:17:03;7.93;;;2.50;;
43801;SDS011;29429;51.074;13.764;2022-09-21T17:19:36;3.17;;;2.58;;
43801;SDS011;29429;51.074;13.764;2022-09-21T17:22:04;4.13;;;2.80;;
43801;SDS011;29429;51.074;13.764;2022-09-21T17:24:32;5.30;;;2.60;;
43801;SDS011;29429;51.074;13.764;2022-09-21T17:27:15;5.03;;;2.30;;
43801;SDS011;29429;51.074;13.764;2022-09-21T17:29:45;5.45;;;2.25;;
43801;SDS011;29429;51.074;13.764;2022-09-21T17:32:16;3.13;;;2.20;;
43801;SDS011;29429;51.074;13.764;2022-09-21T17:37:51;4.18;;;2.53;;
43801;SDS011;29429;51.074;13.764;2022-09-21T17:40:18;4.20;;;2.03;;
43801;SDS011;29429;51.074;13.764;2022-09-21T17:42:48;6.28;;;2.38;;
43801;SDS011;29429;51.074;13.764;2022-09-21T17:48:04;6.55;;;2.42;;
43801;SDS011;29429;51.074;13.764;2022-09-21T17:50:38;7.13;;;2.80;;
43801;SDS011;29429;51.074;13.764;2022-09-21T17:53:05;3.53;;;2.50;;
43801;SDS011;29429;51.074;13.764;2022-09-21T17:55:55;6.20;;;2.58;;
43801;SDS011;29429;51.074;13.764;2022-09-21T18:01:21;5.57;;;2.63;;
43801;SDS011;29429;51.074;13.764;2022-09-21T18:04:14;3.63;;;2.45;;
43801;SDS011;29429;51.074;13.764;2022-09-21T18:06:43;4.38;;;2.22;;
43801;SDS011;29429;51.074;13.764;2022-09-21T18:09:10;3.75;;;2.15;;
43801;SDS011;29429;51.074;13.764;2022-09-21T18:25:39;4.38;;;2.65;;
43801;SDS011;29429;51.074;13.764;2022-09-21T18:42:55;3.25;;;2.20;;
43801;SDS011;29429;51.074;13.764;2022-09-21T18:45:57;2.75;;;2.20;;
43801;SDS011;29429;51.074;13.764;2022-09-21T18:49:01;3.65;;;2.30;;
43801;SDS011;29429;51.074;13.764;2022-09-21T18:54:50;6.00;;;2.53;;
43801;SDS011;29429;51.074;13.764;2022-09-21T18:57:17;4.10;;;2.47;;
43801;SDS011;29429;51.074;13.764;2022-09-21T18:59:44;3.40;;;2.20;;
43801;SDS011;29429;51.074;13.764;2022-09-21T19:02:13;4.35;;;2.63;;
43801;SDS011;29429;51.074;13.764;2022-09-21T19:04:45;4.45;;;2.65;;
43801;SDS011;29429;51.074;13.764;2022-09-21T19:07:16;9.05;;;2.90;;
43801;SDS011;29429;51.074;13.764;2022-09-21T19:13:10;7.13;;;2.90;;
43801;SDS011;29429;51.074;13.764;2022-09-21T19:16:23;4.65;;;3.03;;
43801;SDS011;29429;51.074;13.764;2022-09-21T19:21:56;3.78;;;2.40;;
43801;SDS011;29429;51.074;13.764;2022-09-21T19:27:47;4.72;;;2.97;;
43801;SDS011;29429;51.074;13.764;2022-09-21T19:30:24;4.72;;;3.00;;
43801;SDS011;29429;51.074;13.764;2022-09-21T19:32:53;8.10;;;3.55;;
43801;SDS011;29429;51.074;13.764;2022-09-21T19:35:27;7.13;;;3.50;;
43801;SDS011;29429;51.074;13.764;2022-09-21T19:37:58;7.40;;;4.28;;
43801;SDS011;29429;51.074;13.764;2022-09-21T19:40:28;7.78;;;4.07;;
43801;SDS011;29429;51.074;13.764;2022-09-21T19:46:19;5.13;;;3.45;;
43801;SDS011;29429;51.074;13.764;2022-09-21T19:49:41;5.72;;;3.50;;
43801;SDS011;29429;51.074;13.764;2022-09-21T19:55:00;6.18;;;3.40;;
43801;SDS011;29429;51.074;13.764;2022-09-21T19:57:45;7.28;;;3.97;;
43801;SDS011;29429;51.074;13.764;2022-09-21T20:00:31;6.22;;;3.42;;